• Join FlightAware (Why Join?)
  • Login
  • US Flag 
06:19PM EDT


 

Airport Tracker/Info


-or-


 

Live Flight TrackerFlight Track Log ✈ UAL1423 ✈ 21-Mar-2014 ✈ KIAH - KDCA

Flight Track Log - Related Links

Times and Time Zones

All times are in EDT time to prevent confusion due to time zone crossing. See the UAL1423 flight status page for this flight to view local times or setup timezone preferences in your user account.

Time Position Orientation Groundspeed Altitude Reporting Facility
EDT Latitude Longitude Course Direction KTS MPH feet Rate Location/Type
03:45PM 29.9591 -95.3418 171° South 159 183 900  Level FlightAware ADS-B (KHOU)
03:45PM 29.9550 -95.3422 187° South 164 189 1,100 1,980 Climbing FlightAware ADS-B (KHOU)
03:46PM 29.9519 -95.3433 201° Southwest 171 197 1,200 1,200 Climbing FlightAware ADS-B (KHOU)
03:46PM 29.9477 -95.3461 214° Southwest 183 211 1,300 1,200 Climbing FlightAware ADS-B (KHOU)
03:46PM 29.9447 -95.3493 225° Southwest 193 222 1,400 1,980 Climbing FlightAware ADS-B (KHOU)
03:46PM 29.9421 -95.3536 237° Southwest 204 235 1,600 2,400 Climbing FlightAware ADS-B (KHOU)
03:46PM 29.9401 -95.3588 249° West 213 245 1,800 2,160 Climbing FlightAware ADS-B (KHOU)
03:46PM 29.9389 -95.3650 259° West 221 254 2,000 2,400 Climbing FlightAware ADS-B (KHOU)
03:46PM 29.9388 -95.3703 269° West 228 262 2,200 3,300 Climbing FlightAware ADS-B (KHOU)
03:46PM 29.9396 -95.3766 281° West 231 266 2,500 3,600 Climbing FlightAware ADS-B (KHOU)
03:46PM 29.9414 -95.3826 292° West 235 270 2,800 3,180 Climbing FlightAware ADS-B (KHOU)
03:46PM 29.9452 -95.3900 306° West 240 276 3,200 3,000 Climbing FlightAware ADS-B (KHOU)
03:46PM 29.9491 -95.3950 314° West 245 282 3,400 2,520 Climbing FlightAware ADS-B (KHOU)
03:46PM 29.9520 -95.3979 320° Northwest 250 288 3,500 2,220 Climbing FlightAware ADS-B (KHOU)
03:47PM 29.9571 -95.4018 329° Northwest 256 295 3,700 1,620 Climbing FlightAware ADS-B (KHOU)
03:47PM 29.9627 -95.4048 335° Northwest 262 302 3,800 1,200 Climbing FlightAware ADS-B (KHOU)
03:47PM 29.9683 -95.4068 345° North 269 310 3,900 360 Climbing FlightAware ADS-B (KHOU)
03:47PM 29.9806 -95.4084 359° North 276 318 3,900  Level FlightAware ADS-B (KHOU)
03:47PM 29.9958 -95.4053 18° North 283 326 3,900  Level FlightAware ADS-B (KHOU)
03:47PM 29.9999 -95.4034 22° Northeast 284 327 3,900  Level FlightAware ADS-B (KHOU)
03:47PM 30.0053 -95.3999 30° Northeast 283 326 3,900  Level FlightAware ADS-B (KHOU)
03:47PM 30.0111 -95.3949 37° Northeast 281 323 3,900  Level FlightAware ADS-B (KHOU)
03:47PM 30.0154 -95.3903 44° Northeast 280 322 3,900  Level FlightAware ADS-B (KHOU)
03:48PM 30.0285 -95.3732 50° Northeast 281 323 3,900 1,620 Level FlightAware ADS-B (KHOU)
03:48PM 30.0647 -95.3337 38° Northeast 286 329 5,400 2,280 Climbing FlightAware ADS-B (KHOU)
03:49PM 30.0822 -95.3178 38° Northeast 299 344 6,000 3,060 Climbing FlightAware ADS-B (KHOU)
03:49PM 30.0989 -95.3031 37° Northeast 303 349 7,000 3,900 Climbing FlightAware ADS-B (KHOU)
03:49PM 30.1046 -95.2979 37° Northeast 301 346 7,300 3,780 Climbing FlightAware ADS-B (KHOU)
03:49PM 30.1190 -95.2850 37° Northeast 300 345 8,400 3,420 Climbing FlightAware ADS-B (KHOU)
03:49PM 30.1320 -95.2734 37° Northeast 304 350 8,800 3,300 Climbing FlightAware ADS-B (KHOU)
03:49PM 30.1431 -95.2634 38° Northeast 304 350 9,400 3,360 Climbing FlightAware ADS-B (KHOU)
03:50PM 30.1768 -95.2331 38° Northeast 319 367 11,000 2,640 Climbing FlightAware ADS-B (KHOU)
03:50PM 30.2141 -95.1995 38° Northeast 351 404 12,000 2,640 Climbing FlightAware ADS-B (KHOU)
03:51PM 30.2518 -95.1653 38° Northeast 355 409 13,700 3,300 Climbing FlightAware ADS-B (KHOU)
03:51PM 30.2915 -95.1292 38° Northeast 363 418 15,300 2,280 Climbing FlightAware ADS-B (KHOU)
03:52PM 30.3322 -95.0923 38° Northeast 375 432 16,000 540 Climbing FlightAware ADS-B (KHOU)
03:52PM 30.3733 -95.0553 37° Northeast 374 430 15,900 -120 Descending FlightAware ADS-B (KHOU)
03:53PM 30.4141 -95.0184 38° Northeast 372 428 15,900  Level FlightAware ADS-B (KHOU)
03:53PM 30.4541 -94.9820 38° Northeast 370 426 15,900 60 Level FlightAware ADS-B (KHOU)
03:54PM 30.5217 -94.9206 38° Northeast 373 429 16,000 720 Climbing FlightAware ADS-B (KHOU)
03:55PM 30.5599 -94.8868 34° Northeast 374 430 16,900 2,400 Climbing FlightAware ADS-B (KHOU)
03:55PM 30.6066 -94.8509 33° Northeast 382 440 18,400 2,700 Climbing FlightAware ADS-B (KHOU)
03:56PM 30.6495 -94.8179 33° Northeast 392 451 19,700 2,400 Climbing FlightAware ADS-B (KHOU)
03:56PM 30.6969 -94.7815 33° Northeast 401 461 20,900 2,460 Climbing FlightAware ADS-B (KHOU)
03:57PM 30.7441 -94.7452 33° Northeast 404 465 22,200 2,280 Climbing FlightAware ADS-B (KHOU)
03:57PM 30.7912 -94.7089 33° Northeast 413 475 23,200 1,920 Climbing FlightAware ADS-B (KHOU)
03:58PM 30.8389 -94.6722 33° Northeast 424 488 24,200 1,860 Climbing FlightAware ADS-B (KHOU)
03:58PM 30.8876 -94.6345 33° Northeast 433 498 25,100 1,800 Climbing FlightAware ADS-B (KHOU)
03:59PM 30.9373 -94.5960 33° Northeast 440 506 26,000 1,740 Climbing FlightAware ADS-B (KHOU)
03:59PM 30.9902 -94.5550 33° Northeast 448 516 26,900 1,560 Climbing FlightAware ADS-B (KHOU)
04:00PM 31.0384 -94.5176 33° Northeast 454 522 27,600 1,620 Climbing FlightAware ADS-B (KHOU)
04:00PM 31.0958 -94.4731 33° Northeast 462 532 28,500 1,620 Climbing FlightAware ADS-B (KHOU)
04:01PM 31.1498 -94.4311 33° Northeast 467 537 29,300 1,560 Climbing FlightAware ADS-B (KHOU)
04:01PM 31.2030 -94.3896 33° Northeast 473 544 30,100 1,380 Climbing FlightAware ADS-B (KHOU)
04:02PM 31.2559 -94.3483 33° Northeast 480 552 30,700 1,260 Climbing FlightAware ADS-B (KHOU)
04:02PM 31.3131 -94.3037 33° Northeast 486 559 31,400 1,320 Climbing FlightAware ADS-B (KHOU)
04:03PM 31.3547 -94.2711 33° Northeast 490 564 31,900 1,200 Climbing FlightAware ADS-B (KHOU)
04:03PM 31.3926 -94.2415 33° Northeast 494 568 32,600 1,440 Climbing FlightAware ADS-B (KHOU)
04:04PM 31.5129 -94.1469 35° Northeast 495 570 33,900 1,620 Climbing FlightAware ADS-B (KHOU)
04:04PM 31.5403 -94.1211 40° Northeast 500 575 34,300 1,380 Climbing FlightAware ADS-B (KHOU)
04:04PM 31.5349 -94.1266 42° Northeast 502 578 34,400 1,080 Climbing FlightAware ADS-B (KDTN)
04:05PM 31.5940 -94.0559 51° Northeast 518 596 35,000 1,080 Climbing FlightAware ADS-B (KHOU)
04:05PM 31.6126 -94.0285 52° Northeast 518 596 35,200 840 Climbing FlightAware ADS-B (KDTN)
04:06PM 31.6530 -93.9687 51° Northeast 523 602 35,600 900 Climbing FlightAware ADS-B (KHOU)
04:06PM 31.6745 -93.9370 52° Northeast 523 602 35,800 960 Climbing FlightAware ADS-B (KDTN)
04:06PM 31.7173 -93.8736 51° Northeast 527 606 36,200 960 Climbing FlightAware ADS-B (KHOU)
04:06PM 31.7229 -93.8654 52° Northeast 526 605 36,300 900 Climbing FlightAware ADS-B (KDTN)
04:07PM 31.7599 -93.8104 51° Northeast 528 608 36,700 900 Climbing FlightAware ADS-B (KHOU)
04:07PM 31.7738 -93.7897 52° Northeast 528 608 36,900 420 Climbing FlightAware ADS-B (KDTN)
04:07PM 31.8295 -93.7068 52° Northeast 529 609 37,000 60 Climbing FlightAware ADS-B (KDTN)
04:08PM 31.8751 -93.6388 52° Northeast 528 608 37,000  Level FlightAware ADS-B (KDTN)
04:08PM 31.8540 -93.6703 51° Northeast 529 609 37,000  Level FlightAware ADS-B (KHOU)
04:09PM 31.9313 -93.5550 52° Northeast 526 605 37,000  Level FlightAware ADS-B (KDTN)
04:09PM 32.0081 -93.4408 52° Northeast 520 598 37,000  Level FlightAware ADS-B (KDTN)
04:10PM 32.0818 -93.3304 52° Northeast 520 598 37,000 420 Level FlightAware ADS-B (KDTN)
04:11PM 32.1468 -93.2323 52° Northeast 520 598 37,700 960 Climbing FlightAware ADS-B (KDTN)
04:12PM 32.1981 -93.1546 52° Northeast 520 598 38,300 840 Climbing FlightAware ADS-B (KDTN)
04:12PM 32.2442 -93.0850 52° Northeast 521 600 38,700 660 Climbing FlightAware ADS-B (KDTN)
04:13PM 32.2910 -93.0144 52° Northeast 523 602 39,000 240 Climbing FlightAware ADS-B (KDTN)
04:13PM 32.3487 -92.9270 52° Northeast 525 604 39,000  Level FlightAware ADS-B (KDTN)
04:14PM 32.4253 -92.8108 52° Northeast 524 603 39,000  Level FlightAware ADS-B (KDTN)
04:15PM 32.4685 -92.7456 52° Northeast 522 601 39,000  Level FlightAware ADS-B (KDTN)
04:15PM 32.5248 -92.6600 52° Northeast 523 602 39,000  Level FlightAware ADS-B (KDTN)
04:16PM 32.6067 -92.5353 52° Northeast 522 601 39,000  Level Memphis Center
04:17PM 32.6950 -92.3989 52° Northeast 522 601 39,000  Level Memphis Center
04:18PM 32.7831 -92.2631 52° Northeast 522 601 39,000  Level Memphis Center
04:19PM 32.8881 -92.0986 53° Northeast 522 601 39,000  Level Memphis Center
04:20PM 32.9639 -91.9819 52° Northeast 522 601 39,000  Level Memphis Center
04:21PM 33.0706 -91.8169 52° Northeast 524 603 39,000  Level Memphis Center
04:23PM 33.1581 -91.6797 53° Northeast 525 604 39,000  Level Memphis Center
04:24PM 33.2464 -91.5425 52° Northeast 524 603 39,000  Level Memphis Center
04:25PM 33.3344 -91.4050 53° Northeast 524 603 39,000  Level Memphis Center
04:26PM 33.4197 -91.2683 53° Northeast 519 597 39,000  Level Memphis Center
04:27PM 33.5239 -91.1017 53° Northeast 519 597 39,000  Level Memphis Center
04:28PM 33.6108 -90.9639 53° Northeast 519 597 39,000  Level Memphis Center
04:29PM 33.6975 -90.8247 53° Northeast 520 598 39,000  Level Memphis Center
04:31PM 33.8736 -90.5419 53° Northeast 520 598 39,000  Level Memphis Center
04:32PM 33.9611 -90.4019 53° Northeast 521 600 39,000  Level Memphis Center
04:33PM 34.0639 -90.2333 54° Northeast 521 600 39,000  Level Memphis Center
04:34PM 34.1508 -90.0933 53° Northeast 521 600 39,000  Level Memphis Center
04:35PM 34.2356 -89.9525 54° Northeast 521 600 39,000  Level Memphis Center
04:36PM 34.3206 -89.8125 54° Northeast 521 600 39,000  Level Memphis Center
04:37PM 34.4044 -89.6728 54° Northeast 521 600 39,000  Level Memphis Center
04:38PM 34.5050 -89.5064 54° Northeast 520 598 39,000  Level Memphis Center
04:39PM 34.5869 -89.3672 54° Northeast 517 595 39,000  Level Memphis Center
04:44PM 34.9684 -88.7291 54° Northeast 39,000  Level FlightAware ADS-B (KMDQ)
04:46PM 35.1661 -88.3914 54° Northeast 521 600 39,000  Level FlightAware ADS-B (KMDQ)
04:46PM 35.2039 -88.3268 55° Northeast 522 601 39,000  Level FlightAware ADS-B (KMDQ)
04:48PM 35.3342 -88.1023 55° Northeast 519 597 39,000  Level FlightAware ADS-B (KMDQ)
04:48PM 35.3820 -88.0193 55° Northeast 520 598 39,000  Level FlightAware ADS-B (KMDQ)
04:50PM 35.4917 -87.8286 55° Northeast 521 600 39,000  Level FlightAware ADS-B (KMDQ)
04:50PM 35.5437 -87.7378 55° Northeast 522 601 39,000  Level FlightAware ADS-B (KMDQ)
04:51PM 35.6093 -87.6226 55° Northeast 521 600 39,000  Level FlightAware ADS-B (KMDQ)
04:52PM 35.6585 -87.5362 55° Northeast 520 598 39,000  Level FlightAware ADS-B (KMDQ)
04:53PM 35.7030 -87.4515 61° Northeast 529 609 39,000  Level FlightAware ADS-B (KMDQ)
04:53PM 35.7575 -87.3047 66° East 535 616 39,000  Level FlightAware ADS-B (KMDQ)
04:55PM 35.8216 -87.1264 66° East 531 611 39,000  Level FlightAware ADS-B (KMDQ)
04:55PM 35.8928 -86.9282 66° East 530 610 39,000  Level FlightAware ADS-B (KMDQ)
04:56PM 35.9338 -86.8136 66° East 531 611 39,000  Level FlightAware ADS-B (KMDQ)
04:57PM 35.9942 -86.6434 67° East 532 612 39,000  Level FlightAware ADS-B (KMDQ)
04:58PM 36.0297 -86.5430 67° East 531 611 39,000  Level FlightAware ADS-B (KMDQ)
04:59PM 36.0715 -86.4246 67° East 531 611 39,000  Level FlightAware ADS-B (KMDQ)
04:59PM 36.1064 -86.3255 67° East 530 610 39,000  Level FlightAware ADS-B (KMDQ)
05:05PM 36.4129 -85.4393 67° East 523 602 39,000  Level FlightAware ADS-B (KBRY)
05:06PM 36.4898 -85.2131 67° East 522 601 39,000  Level FlightAware ADS-B (KBRY)
05:07PM 36.5385 -85.0685 67° East 520 598 39,000  Level FlightAware ADS-B (KBRY)
05:08PM 36.6059 -84.8680 68° East 520 598 39,000  Level FlightAware ADS-B (KBRY)
05:09PM 36.6415 -84.7610 67° East 525 604 39,000  Level FlightAware ADS-B (KMDQ)
05:10PM 36.7160 -84.5369 68° East 520 598 39,000  Level FlightAware ADS-B (KBRY)
05:11PM 36.7714 -84.3680 68° East 519 597 39,000  Level FlightAware ADS-B (KBRY)
05:12PM 36.8219 -84.2139 68° East 518 596 39,000  Level FlightAware ADS-B (KBRY)
05:13PM 36.8542 -84.1153 68° East 516 594 39,000  Level FlightAware ADS-B (KBRY)
05:14PM 36.9503 -83.8183 68° East 517 595 39,000  Level Indianapolis Center
05:15PM 37.0039 -83.6522 68° East 515 593 39,000  Level Indianapolis Center
05:16PM 37.0661 -83.4594 68° East 515 593 39,000  Level Indianapolis Center
05:17PM 37.1186 -83.2908 69° East 514 592 39,000  Level Indianapolis Center
05:19PM 37.1719 -83.1236 68° East 514 592 39,000  Level Indianapolis Center
05:20PM 37.2250 -82.9558 68° East 514 592 39,000  Level Indianapolis Center
05:21PM 37.2775 -82.7894 68° East 512 589 39,000  Level Indianapolis Center
05:22PM 37.3286 -82.6239 69° East 510 587 39,000  Level Indianapolis Center
05:23PM 37.3794 -82.4600 69° East 505 581 39,000  Level Indianapolis Center
05:24PM 37.4381 -82.2678 69° East 504 580 39,000  Level Indianapolis Center
05:25PM 37.4869 -82.1033 69° East 503 579 39,000  Level Indianapolis Center
05:26PM 37.5375 -81.9386 69° East 503 579 39,000  Level Indianapolis Center
05:27PM 37.5872 -81.7733 69° East 503 579 39,000  Level Indianapolis Center
05:28PM 37.6369 -81.6089 69° East 503 579 39,000  Level Indianapolis Center
05:29PM 37.6861 -81.4417 70° East 503 579 39,000  Level Indianapolis Center
05:30PM 37.7422 -81.2519 69° East 500 575 39,000  Level Indianapolis Center
05:31PM 37.7900 -81.0919 69° East 499 574 39,000  Level Indianapolis Center
05:32PM 37.8447 -80.9386 66° East 495 570 39,000  Level Indianapolis Center
05:33PM 37.9025 -80.7781 65° Northeast 495 570 39,000  Level Indianapolis Center
05:34PM 37.9586 -80.6172 66° East 497 572 39,000  Level Indianapolis Center
05:35PM 38.0064 -80.4911 64° Northeast 493 567 39,000  Level Washington Center
05:36PM 38.0581 -80.3467 66° East 493 567 39,000  Level Washington Center
05:37PM 38.1144 -80.1842 66° East 493 567 39,000  Level Washington Center
05:38PM 38.1728 -80.0211 65° Northeast 493 567 39,000 -60 Level Washington Center
05:39PM 38.2308 -79.8633 65° Northeast 493 567 38,900 -1,080 Descending Washington Center
05:40PM 38.2864 -79.7053 66° East 493 567 36,900 -2,700 Descending Washington Center
05:41PM 38.3486 -79.5258 66° East 493 567 33,500 -3,300 Descending Washington Center
05:42PM 38.4039 -79.3647 66° East 493 567 30,400 -2,880 Descending Washington Center
05:43PM 38.4467 -79.1919 72° East 493 567 27,800 -2,220 Descending Washington Center
05:44PM 38.4767 -79.0208 77° East 498 573 26,000 -1,020 Descending Washington Center
05:45PM 38.5003 -78.8469 80° East 493 567 25,800 -1,380 Descending Washington Center
05:46PM 38.5256 -78.6861 79° East 483 556 23,300 -1,680 Descending Washington Center
05:47PM 38.5525 -78.5253 78° East 469 540 22,500 -1,500 Descending Washington Center
05:48PM 38.5769 -78.3722 78° East 455 524 20,400 -2,100 Descending Washington Center
05:49PM 38.6031 -78.2269 77° East 429 494 18,300 -2,040 Descending Washington Center
05:50PM 38.6456 -78.0983 67° East 400 460 16,400 -2,040 Descending Washington Center
05:51PM 38.6856 -77.9747 67° East 388 447 14,400 -1,680 Descending Washington Center
05:52PM 38.7233 -77.8561 68° East 368 423 13,100 -1,200 Descending Washington Center
05:53PM 38.7750 -77.7644 54° Northeast 335 386 12,100 -1,200 Descending Washington Center
05:54PM 38.8264 -77.6808 52° Northeast 315 362 10,800 -1,140 Descending Washington Center
05:59PM 38.8641 -77.5822 120° Southeast 283 326 5,000 -900 Descending FlightAware ADS-B (KDCA)
06:01PM 38.6397 -77.1055 164° South 216 249 3,900 -600 Descending FlightAware ADS-B (KDCA)
06:02PM 38.6256 -77.0386 77° East 213 245 3,100 -720 Descending FlightAware ADS-B (KDCA)
06:03PM 38.6437 -77.0040 337° Northwest 174 200 2,600 -540 Descending FlightAware ADS-B (KDCA)
06:04PM 38.7044 -77.0232 355° North 177 204 2,100 -540 Descending FlightAware ADS-B (KDCA)
06:05PM 38.7546 -77.0304 334° Northwest 168 193 1,500 -660 Descending FlightAware ADS-B (KDCA)
06:06PM 38.7975 -77.0321 355° North 139 160 800 -720 Descending FlightAware ADS-B (KDCA)
06:07PM 38.8339 -77.0360 356° North 129 148 100 -720 Descending FlightAware ADS-B (KDCA)